Tokushima Airport
RJOS : now visible

Airfield :











YOU CAN JOIN US ON...

 
LOGIN :

Register | Disclaimer

   EN    FR    IT 

 









Legend :    VFR   Marginal VFR   IFR   Intensive IFR   Very Intensive IFR
Visi :
Ceiling :
>= 8 km
>= 3000ft
5 to 8 km
1000 to 3000 ft
1500m to 5 km
500 to 1000 ft
800 to 1500m
200 to 500 ft
< 800m
< 200 ft
Symbols :   Thunderstorms  Fog  Heavy snow  Heavy precipitations  Wind > 20 kt






- Airport Elevation : 26 ft
- IATA code : TKS


RJOS - Tokushima

CURRENT METAR :
  • 060824Z 17012KT 7000 R29/1100VP1800U -SHRA BR FEW006 BKN025 BKN080 24/23 Q1005 RMK 1ST006 5CU025 7AC080 A2970 R1800 2000NE-E

EXPIRED METARs :
  • 060815Z 17016KT 7000 R29/0900VP1800D -SHRA BR FEW006 BKN025 BKN080 24/23 Q1005 RMK 1ST006 5CU025 7AC080 A2970 R1700 1500NE-E
  • 060800Z 17015KT 9999 -SHRA FEW015 BKN025 BKN080 24/22 Q1005
  • 060731Z 18017KT 9999 -SHRA FEW015 BKN025 BKN080 25/22 Q1005 RMK 1CU015 5CU025 7AC080 A2969
  • 060700Z 18015KT 9999 -SHRA SCT025 BKN050 BKN080 26/22 Q1005
  • 060606Z 19015G25KT 170V230 9999 SCT025 BKN050 BKN080 26/22 Q1005 RMK 3CU025 5SC050 7AC080 A2968
  • 060600Z 20011KT 9999 SCT025 BKN050 BKN080 26/22 Q1005

TAF N/A
RJJJ FIR / Asia



MET'MAP, your aeronautical weather chart ! - Copyright ORBIFLY December 2007 - Disclaimer

ORBIFLY MET'MAP TEAM :

Programming & Development : Alexandra Zaïnal
Concept & original design : Baudouin d'Aumeries
Assistance for programming : Marc-Olivier Méhu
Technical & hardware support : Manuel Goepfert

Contact : metmap@orbifly.com




SOURCES & CREDITS :

   NOAA       Earth
Advisory